South Manheim, Pennsylvania
Current Conditions -  °F | °C
As of 11:54 AM on Wednesday 22 Oct 2014 (Local Time) from KRDG Reporting Station
Light Rain Light Rain  
Wind Chill: 55°   Ceiling: 1600
Heat Index: 55°   Visibility: 10mi
Dew Point: 50°   Wind: 10mph
Humidity: 83%   Direction: 10°N
Pressure: 29.94"   Gusts: 20mph
Location:  40.5871°N, 76.1396°W
Report Text: KRDG 221554Z 01009G17KT 10SM -RA BKN016 OVC021 13/10 A2994 RMK AO2 SLP144 P0001 T01280100
Loading
Personal Weather Stations






























Interactive Weather Map
Tropical Storm Tracking
New forecast layout! Learn more

10-Day Weather Forecast

Advertisements
Track Severe Weather on mobile